Time;durP1;ratioP1;P1;durP2;ratioP2;P2;SDS_P1;SDS_P2;PMS_P1;PMS_P2;Temp;Humidity;BMP_temperature;BMP_pressure;BME280_temperature;BME280_humidity;BME280_pressure;Samples;Min_cycle;Max_cycle;Signal;HPM_P1;HPM_P2
2022/01/21 00:01:45;;;;;;;17.55;10.90;;;23.20;83.40;;;;;;1886515;75;21225;-87
2022/01/21 00:04:16;;;;;;;14.05;9.95;;;23.30;83.20;;;;;;1873938;75;21538;-86
2022/01/21 00:06:47;;;;;;;15.25;11.00;;;23.20;82.60;;;;;;1888090;75;21165;-86
2022/01/21 00:09:18;;;;;;;14.93;9.90;;;23.20;82.80;;;;;;1851644;75;21155;-87
2022/01/21 00:11:49;;;;;;;17.57;10.98;;;23.20;82.80;;;;;;1872603;75;21093;-86
2022/01/21 00:14:19;;;;;;;17.12;11.63;;;23.20;82.50;;;;;;1882856;74;21213;-87
2022/01/21 00:16:50;;;;;;;17.12;11.25;;;23.20;82.50;;;;;;1872906;74;21661;-86
2022/01/21 00:19:24;;;;;;;17.67;11.08;;;23.20;82.60;;;;;;1920514;74;21170;-85
2022/01/21 00:32:01;;;;;;;15.32;10.95;;;23.20;82.70;;;;;;1882627;73;21124;-87
2022/01/21 00:34:32;;;;;;;14.78;10.93;;;23.20;82.70;;;;;;1850689;75;21111;-87
2022/01/21 00:37:03;;;;;;;15.45;10.63;;;23.20;82.60;;;;;;1949193;73;21665;-87
2022/01/21 00:39:35;;;;;;;13.70;11.03;;;23.20;83.20;;;;;;1942385;73;21654;-87
2022/01/21 00:44:38;;;;;;;15.80;11.63;;;23.10;83.60;;;;;;1917178;74;21696;-88
2022/01/21 00:47:08;;;;;;;15.48;11.28;;;23.10;84.00;;;;;;1907261;73;21635;-88
2022/01/21 00:49:39;;;;;;;15.53;11.43;;;23.10;84.60;;;;;;1894671;74;21625;-86
2022/01/21 00:52:17;;;;;;;13.70;10.55;;;23.00;84.10;;;;;;1941427;73;21591;-88
2022/01/21 00:54:48;;;;;;;15.80;11.00;;;23.00;84.20;;;;;;1930642;73;21099;-87
2022/01/21 00:57:20;;;;;;;19.23;11.50;;;23.00;84.50;;;;;;1938102;73;21076;-87
2022/01/21 00:59:51;;;;;;;19.85;12.47;;;23.00;85.00;;;;;;1924781;74;21754;-87
2022/01/21 01:02:21;;;;;;;14.80;11.03;;;23.00;85.00;;;;;;1919118;73;21142;-87
2022/01/21 01:04:52;;;;;;;18.07;12.43;;;22.90;85.20;;;;;;1883989;74;21238;-85
2022/01/21 01:07:24;;;;;;;16.62;11.00;;;22.90;85.20;;;;;;1871196;74;21228;-87
2022/01/21 01:09:57;;;;;;;14.90;11.65;;;22.90;85.80;;;;;;1948770;72;21761;-87
2022/01/21 01:12:47;;;;;;;15.83;11.22;;;22.90;85.00;;;;;;1942044;73;21118;-87
2022/01/21 01:20:08;;;;;;;17.02;11.73;;;22.90;85.80;;;;;;1913828;74;21523;-86
2022/01/21 01:27:44;;;;;;;17.70;12.10;;;23.00;85.20;;;;;;1876519;75;21238;-87
2022/01/21 01:30:17;;;;;;;17.00;11.63;;;23.00;84.60;;;;;;1933349;73;21087;-77
2022/01/21 01:32:51;;;;;;;14.90;10.65;;;23.00;85.10;;;;;;1855881;76;21185;-77
2022/01/21 01:35:22;;;;;;;16.27;11.88;;;23.10;85.30;;;;;;1944329;73;21581;-76
2022/01/21 01:50:36;;;;;;;17.02;12.00;;;23.10;85.70;;;;;;1897645;73;21188;-76
2022/01/21 01:53:08;;;;;;;19.02;12.80;;;23.00;85.80;;;;;;1946012;72;21164;-77
2022/01/21 01:55:39;;;;;;;18.95;12.50;;;23.00;86.50;;;;;;1877911;75;21645;-81
2022/01/21 01:58:12;;;;;;;15.63;11.97;;;23.00;86.90;;;;;;1895299;74;21195;-77
2022/01/21 02:00:43;;;;;;;20.08;12.28;;;23.00;86.50;;;;;;1889400;75;21222;-78
2022/01/21 02:03:16;;;;;;;22.40;13.98;;;22.90;87.00;;;;;;1884799;74;21222;-77
2022/01/21 02:05:47;;;;;;;16.67;12.95;;;22.90;87.50;;;;;;1885298;73;21216;-77
2022/01/21 02:08:18;;;;;;;23.12;13.22;;;22.90;87.70;;;;;;1882868;75;21154;-78
2022/01/21 02:10:49;;;;;;;16.70;11.85;;;22.80;88.60;;;;;;1876790;75;21071;-79
2022/01/21 02:13:27;;;;;;;18.40;12.58;;;22.80;87.30;;;;;;1919432;74;21227;-77
2022/01/21 02:15:54;;;;;;;15.98;12.88;;;22.70;87.90;;;;;;1918454;73;21197;-78
2022/01/21 02:23:29;;;;;;;19.00;12.58;;;22.70;88.20;;;;;;1874473;75;21165;-72
2022/01/21 02:26:00;;;;;;;18.60;12.70;;;22.70;87.70;;;;;;1946351;73;21686;-71
2022/01/21 02:28:30;;;;;;;20.25;13.05;;;22.80;88.60;;;;;;1935009;72;21597;-71
2022/01/21 02:31:01;;;;;;;18.23;12.13;;;22.80;89.30;;;;;;1934325;73;21200;-70
2022/01/21 02:33:32;;;;;;;19.52;13.55;;;22.80;88.80;;;;;;1939053;72;21636;-70
2022/01/21 02:36:03;;;;;;;18.77;12.58;;;22.80;88.60;;;;;;1950304;72;21271;-70
2022/01/21 02:38:34;;;;;;;17.00;12.73;;;22.80;89.60;;;;;;1953508;72;21742;-70
2022/01/21 02:41:06;;;;;;;17.65;13.03;;;22.90;88.00;;;;;;1954882;72;21196;-71
2022/01/21 02:43:38;;;;;;;17.62;12.65;;;22.90;88.10;;;;;;1958332;72;21118;-70
2022/01/21 02:46:10;;;;;;;18.92;13.15;;;22.90;87.60;;;;;;1881687;75;21839;-71
2022/01/21 02:48:41;;;;;;;20.90;14.00;;;22.90;86.30;;;;;;1882172;73;21150;-71
2022/01/21 02:51:14;;;;;;;18.70;13.45;;;23.00;86.90;;;;;;1884595;73;21201;-71
2022/01/21 02:56:18;;;;;;;16.82;12.47;;;23.00;86.70;;;;;;1954375;72;21134;-71
2022/01/21 02:58:49;;;;;;;20.37;13.30;;;23.10;86.10;;;;;;1945322;72;21219;-71
2022/01/21 03:01:21;;;;;;;20.88;14.15;;;23.10;85.90;;;;;;1930702;73;21413;-71
2022/01/21 03:03:52;;;;;;;35.35;31.87;;;23.10;86.60;;;;;;1939871;72;21653;-72
2022/01/21 03:06:24;;;;;;;19.57;14.50;;;23.10;86.80;;;;;;1946857;72;21239;-72
2022/01/21 03:08:57;;;;;;;27.07;16.05;;;23.10;85.90;;;;;;1941061;72;21193;-72
2022/01/21 03:11:29;;;;;;;20.80;14.47;;;23.10;87.10;;;;;;1869144;74;21297;-72
2022/01/21 03:14:00;;;;;;;20.82;15.58;;;23.10;87.90;;;;;;1886008;73;21548;-72
2022/01/21 03:16:31;;;;;;;21.57;13.22;;;23.10;87.80;;;;;;1903419;74;21212;-71
2022/01/21 03:19:01;;;;;;;21.00;14.10;;;23.10;86.70;;;;;;1881450;75;21182;-72
2022/01/21 03:21:32;;;;;;;19.45;13.98;;;23.10;86.50;;;;;;1932983;72;21534;-71
2022/01/21 03:24:03;;;;;;;21.85;14.15;;;23.10;86.20;;;;;;1890307;74;21666;-71
2022/01/21 03:26:34;;;;;;;18.15;13.78;;;23.10;86.50;;;;;;1887381;73;21225;-71
2022/01/21 03:29:07;;;;;;;19.02;13.20;;;23.10;86.50;;;;;;1850135;74;21298;-71
2022/01/21 03:31:38;;;;;;;17.65;13.15;;;23.20;86.00;;;;;;1872428;75;21143;-72
2022/01/21 03:34:09;;;;;;;18.75;13.53;;;23.20;85.90;;;;;;1867484;75;21177;-71
2022/01/21 03:36:40;;;;;;;17.40;13.48;;;23.20;85.40;;;;;;1875951;75;21175;-72
2022/01/21 03:39:11;;;;;;;22.00;13.75;;;23.30;85.60;;;;;;1865723;75;21271;-71
2022/01/21 03:41:42;;;;;;;17.57;13.68;;;23.20;86.00;;;;;;1865916;75;21168;-71
2022/01/21 03:44:12;;;;;;;18.60;13.65;;;23.30;85.40;;;;;;1874606;75;21152;-71
2022/01/21 03:46:43;;;;;;;19.75;14.75;;;23.30;84.60;;;;;;1870380;75;21167;-71
2022/01/21 03:49:15;;;;;;;22.20;14.30;;;23.30;84.30;;;;;;1869654;75;21303;-72
2022/01/21 03:51:46;;;;;;;21.45;15.03;;;23.40;84.70;;;;;;1864438;75;21189;-72
2022/01/21 03:54:16;;;;;;;20.23;15.08;;;23.40;85.30;;;;;;1867621;75;21161;-72
2022/01/21 03:56:47;;;;;;;21.15;14.85;;;23.40;84.70;;;;;;1870918;75;21155;-71
2022/01/21 03:59:18;;;;;;;21.37;15.95;;;23.50;84.20;;;;;;1873356;75;21170;-72
2022/01/21 04:01:49;;;;;;;18.37;14.80;;;23.50;84.80;;;;;;1869156;75;22331;-71
2022/01/21 04:04:20;;;;;;;19.07;14.90;;;23.50;84.50;;;;;;1871134;75;21073;-70
2022/01/21 04:06:50;;;;;;;21.12;15.13;;;23.50;84.60;;;;;;1942034;72;21181;-71
2022/01/21 04:09:21;;;;;;;21.55;15.20;;;23.50;84.40;;;;;;1945540;72;21174;-70
2022/01/21 04:11:53;;;;;;;21.20;15.43;;;23.50;84.40;;;;;;1950469;72;21580;-71
2022/01/21 04:14:23;;;;;;;22.52;17.15;;;23.50;84.50;;;;;;1892791;75;21211;-71
2022/01/21 04:16:54;;;;;;;23.45;16.05;;;23.60;84.80;;;;;;1945807;72;21192;-71
2022/01/21 04:19:26;;;;;;;24.55;18.07;;;23.60;84.90;;;;;;1959224;72;21214;-71
2022/01/21 04:21:57;;;;;;;24.75;18.52;;;23.60;85.10;;;;;;1944706;72;21606;-71
2022/01/21 04:24:27;;;;;;;23.05;16.65;;;23.70;84.90;;;;;;1948180;72;21145;-71
2022/01/21 04:26:58;;;;;;;25.65;17.42;;;23.80;84.70;;;;;;1950539;72;21102;-71
2022/01/21 04:29:29;;;;;;;31.05;19.17;;;23.90;84.90;;;;;;1891448;73;21820;-71
2022/01/21 04:32:00;;;;;;;25.97;18.85;;;23.90;84.70;;;;;;1898454;73;21637;-72
2022/01/21 04:34:31;;;;;;;29.82;18.32;;;24.00;84.30;;;;;;1895097;74;21593;-71
2022/01/21 04:37:02;;;;;;;24.23;17.60;;;24.00;83.60;;;;;;1952770;71;21217;-71
2022/01/21 04:39:38;;;;;;;25.37;17.48;;;24.00;83.30;;;;;;1881477;75;21091;-71
2022/01/21 04:47:18;;;;;;;21.97;17.00;;;24.20;82.50;;;;;;1895862;73;21761;-71
2022/01/21 04:49:42;;;;;;;22.73;17.37;;;24.20;82.90;;;;;;1889730;74;21654;-71
2022/01/21 04:52:13;;;;;;;21.37;17.70;;;24.20;82.60;;;;;;1870093;76;21135;-71
2022/01/21 04:54:44;;;;;;;24.80;17.82;;;24.20;83.50;;;;;;1946618;72;21155;-71
2022/01/21 04:57:14;;;;;;;22.20;16.80;;;24.20;83.40;;;;;;1886694;73;21122;-70
2022/01/21 04:59:46;;;;;;;26.35;18.62;;;24.20;83.20;;;;;;1887338;73;21602;-71
2022/01/21 05:02:17;;;;;;;24.02;17.10;;;24.20;83.30;;;;;;1940275;72;21605;-71
2022/01/21 05:04:48;;;;;;;27.35;19.15;;;24.20;83.10;;;;;;1884111;75;21174;-71
2022/01/21 05:07:22;;;;;;;22.42;17.10;;;24.40;83.50;;;;;;1891461;74;21192;-71
2022/01/21 05:09:50;;;;;;;20.55;16.87;;;24.40;82.70;;;;;;1893462;74;21188;-72
2022/01/21 05:12:23;;;;;;;21.60;16.42;;;24.40;82.60;;;;;;1883772;74;21133;-73
2022/01/21 05:15:11;;;;;;;19.75;15.40;;;24.50;82.30;;;;;;1870578;75;21164;-70
2022/01/21 05:17:26;;;;;;;21.17;14.85;;;24.50;82.00;;;;;;1933264;73;21192;-71
2022/01/21 05:19:58;;;;;;;23.38;16.70;;;24.40;81.80;;;;;;1918513;73;21220;-72
2022/01/21 05:22:29;;;;;;;22.15;16.50;;;24.40;82.40;;;;;;1968931;72;21059;-70
2022/01/21 05:25:00;;;;;;;22.55;16.57;;;24.40;82.50;;;;;;1952936;72;21150;-71
2022/01/21 05:27:31;;;;;;;19.60;15.50;;;24.30;82.70;;;;;;1940983;72;21685;-70
2022/01/21 05:30:01;;;;;;;23.30;16.05;;;24.40;82.40;;;;;;1950487;72;21108;-69
2022/01/21 05:32:32;;;;;;;22.48;15.75;;;24.40;82.50;;;;;;1877403;75;21158;-72
2022/01/21 05:35:03;;;;;;;24.20;15.65;;;24.30;82.80;;;;;;1890746;74;21146;-72
2022/01/21 05:37:35;;;;;;;24.65;16.37;;;24.30;82.90;;;;;;1882264;74;21215;-72
2022/01/21 05:40:08;;;;;;;23.87;18.05;;;24.40;82.70;;;;;;1907963;74;21123;-72
2022/01/21 05:42:40;;;;;;;26.87;19.77;;;24.40;82.60;;;;;;1892984;74;21659;-71
2022/01/21 05:47:43;;;;;;;23.92;18.00;;;24.50;82.10;;;;;;1888143;74;21122;-72
2022/01/21 05:50:14;;;;;;;27.98;20.05;;;24.50;82.00;;;;;;1889451;74;21199;-71
2022/01/21 05:52:47;;;;;;;22.25;17.32;;;24.60;82.10;;;;;;1886712;74;21678;-70
2022/01/21 05:55:18;;;;;;;20.60;16.02;;;24.60;82.20;;;;;;1887050;74;21068;-71
2022/01/21 05:57:48;;;;;;;18.85;15.35;;;24.60;81.40;;;;;;1894440;74;21068;-71
2022/01/21 06:00:19;;;;;;;23.67;18.17;;;24.70;81.20;;;;;;1874581;74;21072;-71
2022/01/21 06:02:50;;;;;;;25.57;18.82;;;24.70;81.50;;;;;;1873039;74;21597;-71
2022/01/21 06:05:22;;;;;;;21.75;17.75;;;24.70;80.80;;;;;;1894659;74;21205;-70
2022/01/21 06:07:52;;;;;;;22.80;17.42;;;24.80;81.20;;;;;;1894655;74;21831;-71
2022/01/21 06:10:23;;;;;;;18.52;13.05;;;24.80;81.30;;;;;;1894562;74;21167;-70
2022/01/21 06:12:53;;;;;;;21.40;13.90;;;24.80;80.60;;;;;;1913966;73;21158;-71
2022/01/21 06:15:25;;;;;;;19.70;13.13;;;24.80;81.20;;;;;;1896420;74;21154;-71
2022/01/21 06:17:56;;;;;;;16.77;13.08;;;24.80;80.40;;;;;;1909888;73;21113;-71
2022/01/21 06:20:30;;;;;;;16.00;13.62;;;24.80;80.10;;;;;;1895776;73;21177;-71
2022/01/21 06:23:01;;;;;;;22.62;17.55;;;24.80;80.20;;;;;;1942643;72;21138;-70
2022/01/21 06:25:32;;;;;;;25.27;17.90;;;24.80;80.60;;;;;;1948190;72;21151;-70
2022/01/21 06:28:03;;;;;;;24.43;17.30;;;24.80;81.30;;;;;;1934942;72;21180;-70
2022/01/21 06:30:34;;;;;;;22.73;16.57;;;24.90;80.90;;;;;;1941970;72;21123;-70
2022/01/21 06:33:04;;;;;;;23.55;17.40;;;24.80;80.60;;;;;;1895180;74;21083;-71
2022/01/21 06:35:35;;;;;;;23.73;16.55;;;24.90;80.90;;;;;;1906155;74;21581;-71
2022/01/21 06:38:07;;;;;;;23.60;16.62;;;24.90;81.70;;;;;;1917949;73;21231;-71
2022/01/21 06:40:37;;;;;;;29.55;16.75;;;25.00;82.70;;;;;;1906917;73;21206;-70
2022/01/21 06:43:09;;;;;;;23.00;16.42;;;25.10;82.50;;;;;;1900055;73;21311;-69
2022/01/21 06:45:39;;;;;;;20.20;15.85;;;25.10;82.60;;;;;;1900640;74;21121;-75
2022/01/21 06:48:10;;;;;;;25.12;17.62;;;25.30;82.20;;;;;;1885966;73;21161;-70
2022/01/21 06:50:43;;;;;;;27.50;20.10;;;25.50;81.30;;;;;;1885345;74;21214;-70
2022/01/21 06:53:14;;;;;;;25.02;18.92;;;25.60;81.20;;;;;;1888689;74;21229;-70
2022/01/21 06:55:45;;;;;;;22.37;17.92;;;25.70;81.30;;;;;;1920850;73;21248;-70
2022/01/21 06:58:16;;;;;;;25.52;17.32;;;25.80;80.30;;;;;;1926043;73;21071;-71
2022/01/21 07:00:46;;;;;;;25.10;16.93;;;25.90;79.80;;;;;;1869313;74;21690;-71
2022/01/21 07:03:17;;;;;;;23.30;17.48;;;25.90;78.70;;;;;;1868847;75;21680;-71
2022/01/21 07:05:48;;;;;;;20.40;15.90;;;25.90;78.20;;;;;;1850221;75;21158;-70
2022/01/21 07:08:19;;;;;;;20.52;15.03;;;25.90;77.90;;;;;;1865756;75;21740;-70
2022/01/21 07:10:49;;;;;;;24.32;16.12;;;26.00;77.90;;;;;;1888131;74;21240;-70
2022/01/21 07:13:20;;;;;;;21.25;15.90;;;26.10;77.60;;;;;;1891738;74;21106;-70
2022/01/21 07:15:51;;;;;;;23.12;13.68;;;26.30;78.10;;;;;;1889223;75;23245;-70
2022/01/21 07:18:23;;;;;;;20.90;13.32;;;26.30;75.90;;;;;;1897457;74;21217;-70
2022/01/21 07:20:54;;;;;;;16.67;12.88;;;26.40;76.20;;;;;;1881918;74;21298;-71
2022/01/21 07:23:24;;;;;;;17.87;13.48;;;26.50;73.60;;;;;;1879844;74;21157;-71
2022/01/21 07:25:55;;;;;;;17.52;13.32;;;26.50;73.70;;;;;;1944221;72;21158;-70
2022/01/21 07:28:26;;;;;;;19.35;13.32;;;26.60;73.30;;;;;;1944639;72;21617;-69
2022/01/21 07:30:57;;;;;;;16.55;12.35;;;26.60;73.60;;;;;;1947781;72;21611;-69
2022/01/21 07:33:29;;;;;;;18.45;13.58;;;26.60;73.30;;;;;;1894784;74;21161;-71
2022/01/21 07:35:59;;;;;;;18.23;14.43;;;26.60;73.40;;;;;;1889899;74;21162;-70
2022/01/21 07:38:30;;;;;;;19.30;14.28;;;26.50;73.30;;;;;;1942148;72;21121;-69
2022/01/21 07:41:03;;;;;;;19.60;14.65;;;26.50;73.80;;;;;;1941867;72;21071;-70
2022/01/21 07:43:35;;;;;;;20.15;15.68;;;26.50;73.90;;;;;;1942185;73;21126;-70
2022/01/21 07:46:06;;;;;;;20.25;15.85;;;26.40;74.10;;;;;;1948255;72;21118;-71
2022/01/21 07:48:36;;;;;;;25.25;17.67;;;26.50;74.30;;;;;;1946534;72;21634;-70
2022/01/21 07:51:07;;;;;;;21.77;17.07;;;26.60;74.80;;;;;;1947424;72;21154;-70
2022/01/21 07:53:41;;;;;;;24.15;17.65;;;26.70;75.30;;;;;;1948559;72;21158;-70
2022/01/21 07:56:11;;;;;;;23.35;15.23;;;26.70;75.00;;;;;;1947219;72;21067;-71
2022/01/21 07:58:43;;;;;;;20.92;13.88;;;26.70;74.60;;;;;;1904302;73;21653;-70
2022/01/21 08:01:14;;;;;;;21.55;14.87;;;26.80;74.00;;;;;;1901089;73;21173;-71
2022/01/21 08:03:45;;;;;;;20.75;14.75;;;26.80;74.10;;;;;;1909400;74;21628;-71
2022/01/21 08:06:17;;;;;;;25.80;15.32;;;26.80;73.60;;;;;;1885082;74;21516;-71
2022/01/21 08:08:49;;;;;;;19.23;15.03;;;26.80;73.70;;;;;;1945079;73;21621;-71
2022/01/21 08:11:19;;;;;;;17.87;13.75;;;26.80;73.90;;;;;;1869639;75;21146;-71
2022/01/21 08:13:53;;;;;;;22.70;14.43;;;26.70;74.00;;;;;;1865824;76;21711;-71
2022/01/21 08:16:24;;;;;;;19.67;14.40;;;26.60;74.00;;;;;;1868646;75;22074;-71
2022/01/21 08:18:54;;;;;;;20.17;14.98;;;26.60;74.60;;;;;;1867046;75;21091;-69
2022/01/21 08:21:25;;;;;;;18.42;13.70;;;26.60;74.80;;;;;;1865655;77;21116;-70
2022/01/21 08:23:57;;;;;;;24.43;15.15;;;26.70;74.60;;;;;;1863268;75;21138;-70
2022/01/21 08:26:29;;;;;;;18.70;14.68;;;26.70;74.40;;;;;;1861559;77;21200;-70
2022/01/21 08:29:00;;;;;;;21.42;15.18;;;26.80;74.70;;;;;;1869064;75;21081;-71
2022/01/21 08:31:32;;;;;;;21.65;15.48;;;26.80;74.60;;;;;;1862453;77;21148;-71
2022/01/21 08:34:03;;;;;;;21.55;16.10;;;26.80;74.60;;;;;;1864016;75;21143;-70
2022/01/21 08:36:34;;;;;;;21.70;14.78;;;26.80;75.40;;;;;;1875862;75;21175;-70
2022/01/21 08:39:04;;;;;;;19.48;14.80;;;26.80;74.40;;;;;;1861841;75;21126;-70
2022/01/21 08:41:35;;;;;;;20.90;15.93;;;26.80;74.60;;;;;;1868476;75;21777;-70
2022/01/21 08:44:06;;;;;;;20.37;16.30;;;26.70;75.20;;;;;;1866715;77;21144;-70
2022/01/21 08:46:37;;;;;;;19.17;15.38;;;26.70;75.30;;;;;;1863749;75;21147;-69
2022/01/21 08:49:09;;;;;;;26.65;17.62;;;26.70;75.10;;;;;;1868757;75;21076;-69
2022/01/21 08:51:50;;;;;;;23.67;17.75;;;26.70;75.10;;;;;;1862740;77;21230;-70
2022/01/21 08:54:12;;;;;;;23.75;17.73;;;26.70;74.80;;;;;;1864604;74;21148;-69
2022/01/21 08:56:43;;;;;;;21.42;16.67;;;26.60;74.90;;;;;;1868782;75;21132;-70
2022/01/21 08:59:14;;;;;;;22.02;16.17;;;26.70;75.10;;;;;;1865932;77;21635;-69
2022/01/21 09:01:47;;;;;;;23.25;16.37;;;26.70;75.30;;;;;;1859438;75;21055;-70
2022/01/21 09:04:18;;;;;;;24.15;15.70;;;26.70;75.30;;;;;;1871917;75;21073;-69
2022/01/21 09:06:49;;;;;;;21.77;16.35;;;26.70;75.20;;;;;;1860665;75;21200;-70
2022/01/21 09:09:20;;;;;;;20.80;15.68;;;26.80;75.20;;;;;;1869918;75;21675;-71
2022/01/21 09:11:52;;;;;;;22.30;16.32;;;26.80;75.10;;;;;;1857134;75;21131;-71
2022/01/21 09:14:22;;;;;;;22.55;16.45;;;26.80;75.40;;;;;;1887377;75;21183;-70
2022/01/21 09:16:53;;;;;;;25.37;16.57;;;26.70;75.70;;;;;;1868614;77;21570;-69
2022/01/21 09:19:25;;;;;;;20.55;16.12;;;26.70;75.50;;;;;;1864990;75;21190;-80
2022/01/21 09:21:56;;;;;;;21.77;15.00;;;26.70;75.70;;;;;;1885238;76;21107;-80
2022/01/21 09:24:27;;;;;;;20.92;15.10;;;26.70;75.90;;;;;;1878713;73;21578;-80
2022/01/21 09:26:58;;;;;;;21.57;15.68;;;26.70;76.00;;;;;;1944397;73;21263;-80
2022/01/21 09:29:29;;;;;;;21.07;15.58;;;26.60;75.80;;;;;;1915520;74;21066;-79
2022/01/21 09:32:00;;;;;;;20.37;15.88;;;26.60;75.80;;;;;;1904537;74;21652;-79
2022/01/21 09:34:31;;;;;;;19.32;15.50;;;26.60;75.90;;;;;;1933846;73;22500;-78
2022/01/21 09:37:03;;;;;;;22.58;16.25;;;26.50;76.00;;;;;;1917503;74;21119;-79
2022/01/21 09:39:34;;;;;;;21.60;15.20;;;26.50;76.10;;;;;;1960132;72;21201;-80
2022/01/21 09:42:06;;;;;;;22.60;15.70;;;26.40;76.20;;;;;;1941045;73;21150;-80
2022/01/21 09:44:38;;;;;;;19.30;16.45;;;26.40;76.50;;;;;;1915440;73;21217;-80
2022/01/21 09:47:11;;;;;;;21.37;16.07;;;26.30;76.70;;;;;;1903092;73;21510;-81
2022/01/21 09:49:42;;;;;;;21.87;16.57;;;26.30;77.00;;;;;;1911103;73;21569;-80
2022/01/21 09:52:19;;;;;;;22.22;17.07;;;26.30;76.90;;;;;;1948237;73;21588;-78
2022/01/21 09:54:48;;;;;;;21.07;16.32;;;26.20;76.90;;;;;;1886604;75;21200;-80
2022/01/21 09:57:22;;;;;;;20.85;16.27;;;26.20;76.90;;;;;;1870136;75;21204;-81
2022/01/21 09:59:55;;;;;;;23.35;16.00;;;26.10;76.80;;;;;;1870234;77;21071;-80
2022/01/21 10:02:28;;;;;;;21.02;15.72;;;26.10;76.90;;;;;;1882487;75;21196;-80
2022/01/21 10:05:01;;;;;;;23.42;16.10;;;26.00;77.10;;;;;;1869940;77;21137;-80
2022/01/21 10:07:34;;;;;;;21.40;15.63;;;26.00;77.20;;;;;;1864128;77;21761;-81
2022/01/21 10:10:08;;;;;;;19.37;15.50;;;25.90;77.40;;;;;;1863854;77;21560;-81
2022/01/21 10:12:43;;;;;;;24.52;17.48;;;25.90;77.60;;;;;;1890443;75;21132;-80
2022/01/21 10:15:13;;;;;;;20.40;15.72;;;25.90;77.70;;;;;;1923043;74;21667;-81
2022/01/21 10:17:47;;;;;;;24.25;17.52;;;25.80;77.10;;;;;;1951192;72;21205;-81
2022/01/21 10:20:21;;;;;;;23.98;15.88;;;25.80;77.90;;;;;;1870715;75;21101;-80
2022/01/21 10:22:54;;;;;;;22.45;16.37;;;25.70;78.00;;;;;;1869669;77;21082;-81
2022/01/21 10:25:26;;;;;;;25.70;18.15;;;25.70;78.00;;;;;;1866227;76;21106;-80
2022/01/21 10:27:59;;;;;;;20.20;16.93;;;25.70;78.50;;;;;;1868989;77;21135;-79
2022/01/21 10:30:29;;;;;;;21.40;16.50;;;25.60;78.70;;;;;;1867142;76;21107;-80
2022/01/21 10:33:00;;;;;;;22.37;17.40;;;25.60;78.70;;;;;;1870135;75;21627;-80
2022/01/21 10:35:40;;;;;;;25.72;18.60;;;25.60;79.30;;;;;;1870131;76;21648;-80
2022/01/21 10:38:09;;;;;;;28.35;19.27;;;25.60;78.90;;;;;;1870404;75;21181;-79
2022/01/21 10:40:39;;;;;;;24.72;18.57;;;25.50;79.60;;;;;;1867092;77;21259;-80
2022/01/21 10:43:16;;;;;;;26.20;19.57;;;25.50;79.50;;;;;;1864242;77;21131;-81
2022/01/21 10:45:49;;;;;;;27.13;19.92;;;25.40;79.60;;;;;;1870022;77;21619;-81
2022/01/21 10:48:20;;;;;;;25.00;20.60;;;25.40;79.70;;;;;;1869062;76;21217;-81
2022/01/21 10:50:53;;;;;;;31.77;22.90;;;25.40;80.00;;;;;;1866994;77;21131;-80
2022/01/21 10:53:27;;;;;;;31.77;21.70;;;25.30;80.30;;;;;;1868406;76;21215;-80
2022/01/21 10:56:00;;;;;;;30.57;21.07;;;25.30;80.70;;;;;;1870241;77;21114;-80
2022/01/21 10:58:33;;;;;;;27.62;20.70;;;25.30;80.80;;;;;;1892072;74;21147;-81
2022/01/21 11:01:11;;;;;;;29.40;20.10;;;25.30;80.80;;;;;;1940340;73;21071;-80
2022/01/21 11:03:40;;;;;;;27.05;20.60;;;25.20;80.80;;;;;;1917366;73;21539;-80
2022/01/21 11:06:11;;;;;;;28.62;20.23;;;25.20;80.90;;;;;;1914446;74;21102;-82
2022/01/21 11:08:42;;;;;;;24.35;19.23;;;25.10;80.60;;;;;;1914890;74;21133;-81
2022/01/21 11:11:23;;;;;;;28.62;19.57;;;25.10;80.60;;;;;;1946707;73;21578;-81
2022/01/21 11:13:54;;;;;;;26.73;19.50;;;25.10;82.20;;;;;;1945537;73;21106;-81
2022/01/21 11:16:26;;;;;;;30.55;21.60;;;25.10;81.00;;;;;;1960034;72;21231;-81
2022/01/21 11:19:08;;;;;;;58.55;36.68;;;25.10;80.80;;;;;;1947198;72;21076;-80
2022/01/21 11:21:35;;;;;;;39.23;27.27;;;25.00;81.00;;;;;;1895698;73;21090;-81
2022/01/21 11:24:08;;;;;;;37.15;25.75;;;25.00;81.00;;;;;;1912133;74;21080;-81
2022/01/21 11:26:39;;;;;;;33.13;24.18;;;25.00;81.40;;;;;;1907618;74;21134;-81
2022/01/21 11:29:11;;;;;;;32.38;24.30;;;25.00;81.40;;;;;;1946639;73;21110;-82
2022/01/21 11:31:43;;;;;;;32.38;23.30;;;25.00;81.30;;;;;;1951032;72;21174;-82
2022/01/21 11:34:14;;;;;;;30.72;23.30;;;25.00;81.30;;;;;;1949450;72;21107;-81
2022/01/21 11:36:45;;;;;;;32.42;22.58;;;25.00;81.40;;;;;;1900392;72;21155;-81
2022/01/21 11:39:21;;;;;;;28.75;23.02;;;25.00;81.50;;;;;;1799041;78;21616;-80
2022/01/21 11:41:51;;;;;;;34.23;23.18;;;24.90;81.50;;;;;;1816409;77;21144;-80
2022/01/21 11:44:25;;;;;;;30.45;23.38;;;25.00;81.60;;;;;;1797311;77;21179;-80
2022/01/21 11:49:32;;;;;;;31.00;22.80;;;24.90;81.20;;;;;;1804888;77;21099;-80
2022/01/21 11:52:05;;;;;;;29.63;21.90;;;24.90;81.30;;;;;;1790893;77;21638;-80
2022/01/21 11:54:37;;;;;;;31.50;22.65;;;24.90;81.10;;;;;;1738883;81;21827;-80
2022/01/21 11:57:11;;;;;;;28.73;20.82;;;24.90;81.30;;;;;;1790192;78;21159;-81
2022/01/21 11:59:57;;;;;;;30.45;20.82;;;24.90;82.00;;;;;;1805548;77;21152;-81
2022/01/21 12:02:24;;;;;;;28.73;20.92;;;24.90;81.00;;;;;;1761292;78;21172;-81
2022/01/21 12:05:07;;;;;;;;;;;;;;;;;;;;;
2022/01/21 12:07:49;;;;;;;30.45;21.40;;;24.80;80.80;;;;;;1820326;77;21119;-81
2022/01/21 12:10:23;;;;;;;29.87;21.45;;;24.90;80.60;;;;;;1789323;77;21183;-82
2022/01/21 12:12:55;;;;;;;29.48;22.48;;;24.90;80.40;;;;;;1800106;77;21179;-81
2022/01/21 12:18:02;;;;;;;29.57;22.02;;;24.80;81.30;;;;;;1809172;77;21140;-81
2022/01/21 12:20:34;;;;;;;32.35;22.50;;;24.80;81.10;;;;;;1768322;79;21223;-80
2022/01/21 12:23:07;;;;;;;29.57;22.85;;;24.80;81.60;;;;;;1801974;77;21166;-82
2022/01/21 12:25:40;;;;;;;35.28;25.62;;;24.80;81.50;;;;;;1814404;77;21158;-80
2022/01/21 12:28:14;;;;;;;32.25;24.90;;;24.80;81.80;;;;;;1813555;77;21232;-81
2022/01/21 12:30:47;;;;;;;39.80;27.65;;;24.80;81.70;;;;;;1816095;77;21206;-80
2022/01/21 12:33:19;;;;;;;40.33;26.57;;;24.80;81.60;;;;;;1777714;77;21165;-80
2022/01/21 12:35:56;;;;;;;38.50;27.30;;;24.80;81.80;;;;;;1800875;78;21191;-80
2022/01/21 12:40:58;;;;;;;41.08;26.77;;;24.80;82.00;;;;;;1768265;78;21212;-81
2022/01/21 12:43:31;;;;;;;36.05;27.07;;;24.80;82.00;;;;;;1810887;77;21148;-80
2022/01/21 12:46:04;;;;;;;37.63;25.90;;;24.80;82.00;;;;;;1797482;78;21493;-81
2022/01/21 12:48:36;;;;;;;38.20;27.20;;;24.80;82.00;;;;;;1814447;77;21127;-81
2022/01/21 12:55:55;;;;;;;45.12;28.77;;;24.80;82.50;;;;;;1814957;77;21319;-81
2022/01/21 12:56:15;;;;;;;37.88;26.20;;;24.80;82.20;;;;;;1819030;77;21109;-81
2022/01/21 12:58:46;;;;;;;38.90;28.12;;;24.70;82.20;;;;;;1814605;77;21265;-81
2022/01/21 13:01:17;;;;;;;37.20;27.05;;;24.80;83.50;;;;;;1814513;76;21642;-81
2022/01/21 13:03:49;;;;;;;40.98;26.15;;;24.80;82.60;;;;;;1812327;77;21152;-81
2022/01/21 13:06:22;;;;;;;33.75;24.37;;;24.80;82.50;;;;;;1784405;79;21466;-80
2022/01/21 13:08:58;;;;;;;35.50;24.32;;;24.80;82.20;;;;;;1817524;77;21194;-80
2022/01/21 13:11:29;;;;;;;34.05;25.68;;;24.70;81.90;;;;;;1814484;77;21119;-81
2022/01/21 13:14:12;;;;;;;37.48;24.18;;;24.70;81.90;;;;;;1806348;77;21166;-80
2022/01/21 13:21:59;;;;;;;34.90;23.42;;;24.70;81.50;;;;;;1826292;74;21210;-81
2022/01/21 13:24:31;;;;;;;34.67;22.82;;;24.60;81.30;;;;;;1839436;76;21239;-80
2022/01/21 13:27:02;;;;;;;34.05;21.52;;;24.60;81.00;;;;;;1841530;75;21172;-81
2022/01/21 13:29:37;;;;;;;33.23;23.00;;;24.70;81.10;;;;;;1840763;76;21696;-80
2022/01/21 13:32:07;;;;;;;33.05;21.85;;;24.60;80.90;;;;;;1810223;78;21160;-80
2022/01/21 13:34:39;;;;;;;31.40;21.23;;;24.60;80.50;;;;;;1798847;77;21176;-80
2022/01/21 13:37:18;;;;;;;33.42;20.97;;;24.60;80.40;;;;;;1805239;77;21220;-81
2022/01/21 13:39:45;;;;;;;28.83;21.42;;;24.60;80.40;;;;;;1838508;76;21599;-80
2022/01/21 13:42:20;;;;;;;28.02;20.72;;;24.60;80.80;;;;;;1850155;76;21147;-81
2022/01/21 13:44:53;;;;;;;33.65;21.37;;;24.50;80.70;;;;;;1838278;76;21128;-81
2022/01/21 13:47:24;;;;;;;30.68;21.93;;;24.50;80.90;;;;;;1854749;77;21110;-81
2022/01/21 13:49:57;;;;;;;32.23;21.80;;;24.50;80.70;;;;;;1806374;77;21088;-81
2022/01/21 13:52:30;;;;;;;30.23;22.02;;;24.50;80.90;;;;;;1820934;77;21179;-81
2022/01/21 13:55:01;;;;;;;31.23;22.27;;;24.50;81.10;;;;;;1830687;77;21124;-81
2022/01/21 13:57:32;;;;;;;30.95;21.40;;;24.40;81.10;;;;;;1827079;77;21654;-81